Time;durP1;ratioP1;P1;durP2;ratioP2;P2;SDS_P1;SDS_P2;PMS_P1;PMS_P2;Temp;Humidity;BMP_temperature;BMP_pressure;BME280_temperature;BME280_humidity;BME280_pressure;Samples;Min_cycle;Max_cycle;Signal;HPM_P1;HPM_P2
2022/01/11 00:01:43;;;;;;;26.30;14.07;;;;;;;4.95;81.22;102416.59;5099471;28;20055;-65
2022/01/11 00:04:12;;;;;;;29.45;14.20;;;;;;;5.19;80.71;102407.38;5111309;27;20403;-64
2022/01/11 00:06:44;;;;;;;29.27;14.47;;;;;;;5.02;81.56;102411.88;5098564;28;20048;-65
2022/01/11 00:09:21;;;;;;;25.83;13.45;;;;;;;5.09;81.32;102412.59;5098656;28;20040;-65
2022/01/11 00:11:49;;;;;;;31.52;14.43;;;;;;;5.30;80.34;102409.28;5098086;28;20043;-66
2022/01/11 00:14:16;;;;;;;24.45;13.43;;;;;;;5.31;79.89;102408.19;5114301;28;20043;-65
2022/01/11 00:16:45;;;;;;;23.83;12.50;;;;;;;5.03;80.43;102416.25;5113194;28;20062;-64
2022/01/11 00:19:14;;;;;;;23.35;12.13;;;;;;;5.18;80.55;102405.69;5098335;28;20051;-65
2022/01/11 00:21:47;;;;;;;22.17;11.02;;;;;;;4.87;80.78;102417.75;5104243;28;20071;-64
2022/01/11 00:24:29;;;;;;;24.13;11.82;;;;;;;4.69;81.42;102422.47;5118006;28;20056;-64
2022/01/11 00:27:08;;;;;;;19.60;11.43;;;;;;;4.64;82.16;102419.63;5100303;28;20055;-65
2022/01/11 00:29:40;;;;;;;19.60;11.35;;;;;;;4.64;82.75;102423.16;5105820;28;20051;-66
2022/01/11 00:32:16;;;;;;;20.85;12.07;;;;;;;4.59;82.84;102420.28;5113627;28;20127;-64
2022/01/11 00:34:52;;;;;;;20.88;11.95;;;;;;;4.70;82.95;102422.25;5116978;28;20039;-65
2022/01/11 00:37:20;;;;;;;20.40;12.40;;;;;;;4.68;82.34;102418.06;5117791;28;20225;-64
2022/01/11 00:39:52;;;;;;;21.05;13.35;;;;;;;4.55;82.94;102416.34;5117896;28;20082;-66
2022/01/11 00:42:21;;;;;;;25.27;13.57;;;;;;;4.82;82.26;102419.53;5116368;28;20055;-64
2022/01/11 00:44:48;;;;;;;24.15;13.73;;;;;;;4.58;83.07;102422.19;5122534;27;20047;-65
2022/01/11 00:47:16;;;;;;;25.98;14.07;;;;;;;4.83;82.94;102421.22;5132096;27;20043;-64
2022/01/11 00:49:44;;;;;;;27.95;13.57;;;;;;;4.83;82.58;102418.47;5121923;27;20414;-65
2022/01/11 00:52:12;;;;;;;25.98;14.50;;;;;;;4.83;82.53;102421.22;5117806;28;20054;-66
2022/01/11 00:54:39;;;;;;;31.00;15.57;;;;;;;5.09;82.02;102420.78;5117536;28;20043;-66
2022/01/11 00:57:06;;;;;;;26.05;14.27;;;;;;;4.87;81.80;102419.66;5118099;28;20048;-65
2022/01/11 00:59:34;;;;;;;31.35;14.55;;;;;;;4.88;82.45;102419.41;5115095;28;20078;-66
2022/01/11 01:02:02;;;;;;;24.80;14.85;;;;;;;4.93;82.22;102418.72;5118945;27;20370;-65
2022/01/11 01:04:29;;;;;;;30.45;14.68;;;;;;;4.87;82.35;102420.50;5138218;27;20058;-65
2022/01/11 01:06:57;;;;;;;25.90;14.40;;;;;;;4.91;82.61;102424.44;5136731;27;20062;-65
2022/01/11 01:09:33;;;;;;;29.38;15.18;;;;;;;4.92;82.51;102417.88;5137717;27;20055;-66
2022/01/11 01:12:00;;;;;;;25.52;14.75;;;;;;;4.87;82.96;102422.38;5101806;28;20054;-65
2022/01/11 01:14:28;;;;;;;21.88;14.32;;;;;;;4.79;83.39;102431.75;5105581;28;20537;-65
2022/01/11 01:16:56;;;;;;;28.13;15.38;;;;;;;4.66;83.15;102426.50;5113461;28;20051;-67
2022/01/11 01:19:34;;;;;;;27.10;15.45;;;;;;;4.90;83.34;102432.84;5095329;28;20044;-65
2022/01/11 01:22:01;;;;;;;23.85;14.35;;;;;;;5.06;82.17;102440.34;5095275;28;20047;-65
2022/01/11 01:24:29;;;;;;;26.50;14.75;;;;;;;4.96;82.24;102440.94;5095669;28;20052;-66
2022/01/11 01:26:56;;;;;;;25.10;15.07;;;;;;;5.12;81.78;102442.16;5095976;28;20052;-65
2022/01/11 01:29:24;;;;;;;27.55;14.35;;;;;;;4.91;81.88;102435.34;5102576;28;20514;-65
2022/01/11 01:31:51;;;;;;;23.00;14.23;;;;;;;5.12;81.47;102433.97;5095440;28;20056;-65
2022/01/11 01:34:18;;;;;;;21.80;15.07;;;;;;;5.05;81.39;102435.97;5095614;28;20052;-66
2022/01/11 01:36:46;;;;;;;28.35;15.68;;;;;;;4.94;81.85;102442.22;5095484;28;20063;-65
2022/01/11 01:39:13;;;;;;;27.08;14.90;;;;;;;4.78;82.18;102438.28;5096347;28;20048;-65
2022/01/11 01:41:44;;;;;;;25.73;15.48;;;;;;;4.88;82.47;102445.91;5096826;28;20051;-64
2022/01/11 01:44:13;;;;;;;30.73;16.48;;;;;;;4.82;82.32;102444.94;5095344;28;20059;-65
2022/01/11 01:46:41;;;;;;;24.75;14.88;;;;;;;5.02;82.05;102442.72;5095610;28;20118;-65
2022/01/11 01:49:14;;;;;;;25.30;15.85;;;;;;;5.00;81.27;102450.34;5107263;28;20047;-66
2022/01/11 01:51:42;;;;;;;27.58;15.32;;;;;;;4.82;82.22;102449.56;5117051;28;20126;-65
2022/01/11 01:54:10;;;;;;;28.65;16.50;;;;;;;4.89;82.36;102442.09;5116944;28;20043;-65
2022/01/11 01:56:37;;;;;;;28.85;16.55;;;;;;;4.75;82.37;102452.41;5126667;27;20043;-65
2022/01/11 01:59:05;;;;;;;26.63;14.50;;;;;;;4.85;82.67;102457.28;5098913;28;20040;-65
2022/01/11 02:01:37;;;;;;;25.55;14.02;;;;;;;4.67;82.83;102469.09;5111397;28;20059;-65
2022/01/11 02:04:05;;;;;;;25.17;14.65;;;;;;;4.80;82.81;102474.34;5133430;27;20410;-66
2022/01/11 02:06:33;;;;;;;26.50;15.38;;;;;;;4.72;81.92;102466.50;5135968;27;20055;-66
2022/01/11 02:09:01;;;;;;;25.05;15.13;;;;;;;4.52;82.59;102471.41;5136175;27;20039;-64
2022/01/11 02:11:30;;;;;;;28.35;16.08;;;;;;;4.34;83.90;102480.44;5121841;27;20050;-65
2022/01/11 02:13:58;;;;;;;26.35;15.13;;;;;;;4.40;83.63;102482.28;5090293;28;20407;-66
2022/01/11 02:16:26;;;;;;;24.52;15.15;;;;;;;4.50;83.51;102477.09;5099571;28;20048;-65
2022/01/11 02:18:56;;;;;;;26.95;15.13;;;;;;;4.66;82.93;102477.50;5112558;28;20044;-65
2022/01/11 02:21:25;;;;;;;25.42;14.52;;;;;;;4.72;82.15;102480.16;5109141;28;20044;-66
2022/01/11 02:23:55;;;;;;;27.45;15.60;;;;;;;4.78;81.99;102473.75;5091528;28;20055;-65
2022/01/11 02:26:24;;;;;;;27.80;15.80;;;;;;;4.53;82.53;102481.28;5103218;28;20055;-65
2022/01/11 02:28:52;;;;;;;28.50;16.13;;;;;;;4.67;83.50;102473.72;5096231;28;20051;-65
2022/01/11 02:31:20;;;;;;;28.90;16.88;;;;;;;4.88;81.88;102473.22;5080816;28;20059;-65
2022/01/11 02:33:56;;;;;;;28.23;17.85;;;;;;;5.03;82.06;102473.59;5095153;28;20051;-65
2022/01/11 02:36:49;;;;;;;36.97;18.60;;;;;;;4.95;81.72;102476.66;5094928;28;20048;-64
2022/01/11 02:39:35;;;;;;;33.97;18.27;;;;;;;4.71;82.10;102483.94;5095182;28;20396;-64
2022/01/11 02:42:08;;;;;;;34.40;19.20;;;;;;;4.64;82.60;102488.66;5107849;28;20061;-64
2022/01/11 02:44:39;;;;;;;33.67;19.63;;;;;;;4.73;82.45;102490.00;5096869;28;20044;-64
2022/01/11 02:47:09;;;;;;;;;;;;;;;4.84;82.08;102480.19;5094706;28;20044;-65
2022/01/11 02:49:37;;;;;;;33.55;19.90;;;;;;;4.67;82.47;102485.47;5093768;28;20390;-64
2022/01/11 02:52:10;;;;;;;35.80;19.85;;;;;;;4.55;82.87;102479.97;5095187;28;20052;-64
2022/01/11 02:54:40;;;;;;;37.15;20.65;;;;;;;4.80;82.49;102485.28;5094027;28;20540;-64
2022/01/11 02:57:25;;;;;;;35.03;19.73;;;;;;;4.96;81.20;102478.31;5111629;28;20058;-65
2022/01/11 02:59:58;;;;;;;34.05;19.30;;;;;;;4.77;81.20;102472.09;5096648;28;20056;-64
2022/01/11 03:02:26;;;;;;;38.63;20.23;;;;;;;4.47;82.39;102480.28;5119107;27;20047;-64
2022/01/11 03:04:54;;;;;;;41.80;20.95;;;;;;;4.50;82.47;102490.75;5134886;28;20070;-65
2022/01/11 03:07:23;;;;;;;37.40;20.88;;;;;;;4.29;82.70;102490.38;5134494;28;20062;-65
2022/01/11 03:12:23;;;;;;;34.97;19.75;;;;;;;4.59;82.87;102486.63;5129804;28;20051;-62
2022/01/11 03:14:51;;;;;;;37.45;19.88;;;;;;;4.50;82.09;102489.91;5114402;28;20078;-64
2022/01/11 03:17:19;;;;;;;36.17;20.05;;;;;;;4.25;82.83;102484.53;5116977;28;20398;-64
2022/01/11 03:19:46;;;;;;;35.10;19.25;;;;;;;4.40;82.74;102498.63;5098173;28;20048;-64
2022/01/11 03:22:14;;;;;;;33.45;19.45;;;;;;;4.35;82.52;102505.84;5097642;28;20055;-64
2022/01/11 03:24:44;;;;;;;38.90;19.50;;;;;;;4.33;82.89;102502.50;5098031;28;20079;-64
2022/01/11 03:27:12;;;;;;;34.55;19.17;;;;;;;4.35;82.68;102497.66;5110503;27;20054;-65
2022/01/11 03:29:40;;;;;;;30.77;17.77;;;;;;;4.40;82.14;102497.78;5125535;27;20062;-64
2022/01/11 03:32:08;;;;;;;29.83;17.73;;;;;;;4.40;82.00;102501.38;5118027;28;20059;-64
2022/01/11 03:34:55;;;;;;;32.40;18.08;;;;;;;4.26;82.58;102518.13;5118247;28;20055;-65
2022/01/11 03:37:24;;;;;;;33.42;18.80;;;;;;;4.34;82.65;102515.91;5117948;28;20055;-66
2022/01/11 03:39:52;;;;;;;34.60;18.92;;;;;;;4.12;82.50;102514.72;5100773;28;20051;-65
2022/01/11 03:42:20;;;;;;;32.67;17.33;;;;;;;4.03;82.81;102515.22;5093484;28;20052;-64
2022/01/11 03:44:49;;;;;;;33.55;17.98;;;;;;;4.16;82.40;102506.91;5114360;28;20059;-64
2022/01/11 03:47:18;;;;;;;33.40;18.45;;;;;;;4.14;82.46;102507.16;5064010;28;20052;-63
2022/01/11 03:49:45;;;;;;;30.40;16.90;;;;;;;4.16;82.49;102510.47;5097449;28;20059;-64
2022/01/11 03:52:13;;;;;;;25.08;15.52;;;;;;;4.44;82.19;102518.94;5098536;28;20055;-65
2022/01/11 03:57:31;;;;;;;30.75;17.73;;;;;;;4.21;82.79;102520.69;5088175;28;20138;-63
2022/01/11 04:00:01;;;;;;;32.85;18.88;;;;;;;3.96;82.92;102514.47;5097016;28;20063;-65
2022/01/11 04:02:28;;;;;;;33.25;18.27;;;;;;;4.09;82.58;102527.97;5122681;27;20055;-65
2022/01/11 04:04:57;;;;;;;32.83;18.00;;;;;;;4.00;82.30;102521.97;5137960;27;20469;-65
2022/01/11 04:07:26;;;;;;;33.70;17.90;;;;;;;3.79;83.43;102518.84;5137637;27;20051;-64
2022/01/11 04:09:55;;;;;;;33.30;17.63;;;;;;;3.92;83.13;102513.28;5137633;27;20050;-65
2022/01/11 04:12:24;;;;;;;30.20;16.83;;;;;;;4.04;83.15;102514.19;5112187;27;20055;-63
2022/01/11 04:14:52;;;;;;;32.17;18.02;;;;;;;4.03;82.05;102518.78;5097095;28;20052;-64
2022/01/11 04:17:19;;;;;;;31.70;17.95;;;;;;;4.12;82.38;102519.31;5098383;28;20078;-64
2022/01/11 04:19:47;;;;;;;30.05;17.35;;;;;;;3.95;82.82;102520.97;5098899;28;20070;-65
2022/01/11 04:22:14;;;;;;;30.85;17.90;;;;;;;3.99;83.46;102514.03;5096551;28;20052;-63
2022/01/11 04:24:42;;;;;;;30.55;16.70;;;;;;;3.97;82.81;102508.81;5079475;28;20067;-64
2022/01/11 04:27:09;;;;;;;33.20;17.73;;;;;;;4.02;82.62;102499.94;5109902;28;20048;-64
2022/01/11 04:29:38;;;;;;;34.10;19.00;;;;;;;3.79;82.73;102511.50;5099428;28;20059;-64
2022/01/11 04:32:06;;;;;;;30.80;18.70;;;;;;;3.67;83.77;102523.34;5116867;28;20052;-63
2022/01/11 04:34:34;;;;;;;34.50;18.08;;;;;;;3.62;84.51;102534.09;5100212;28;20051;-64
2022/01/11 04:37:01;;;;;;;30.50;18.05;;;;;;;3.85;84.44;102528.84;5116759;28;20054;-66
2022/01/11 04:39:30;;;;;;;34.13;18.83;;;;;;;3.81;83.83;102522.19;5128476;27;20047;-64
2022/01/11 04:41:58;;;;;;;35.08;18.13;;;;;;;3.75;83.90;102517.66;5103721;27;20047;-64
2022/01/11 04:44:26;;;;;;;34.30;18.73;;;;;;;3.66;84.72;102517.06;5095519;28;20048;-65
2022/01/11 04:46:54;;;;;;;35.38;20.13;;;;;;;3.66;85.17;102519.78;5096539;28;20052;-64
2022/01/11 04:49:21;;;;;;;33.75;18.77;;;;;;;3.69;84.95;102521.25;5096288;28;20056;-64
2022/01/11 04:51:50;;;;;;;34.90;18.67;;;;;;;3.88;84.31;102523.78;5079144;28;20051;-64
2022/01/11 04:54:18;;;;;;;34.45;18.08;;;;;;;3.90;83.96;102529.00;5096233;28;20048;-64
2022/01/11 04:56:45;;;;;;;34.38;19.08;;;;;;;4.13;83.26;102538.19;5096215;28;20407;-64
2022/01/11 04:59:13;;;;;;;37.78;20.40;;;;;;;4.09;83.29;102538.88;5096031;28;20051;-65
2022/01/11 05:01:40;;;;;;;37.90;20.10;;;;;;;4.05;82.73;102538.50;5095884;28;20048;-65
2022/01/11 05:04:09;;;;;;;39.85;20.85;;;;;;;3.98;83.18;102548.63;5152339;27;20054;-64
2022/01/11 05:06:36;;;;;;;35.67;20.02;;;;;;;4.01;82.75;102553.63;5119847;27;20042;-65
2022/01/11 05:09:04;;;;;;;38.67;20.00;;;;;;;4.22;82.29;102564.09;5138218;27;20066;-65
2022/01/11 05:11:31;;;;;;;37.00;20.83;;;;;;;3.94;82.07;102561.03;5127323;27;20500;-64
2022/01/11 05:13:59;;;;;;;32.60;19.77;;;;;;;3.94;82.67;102563.75;5116489;28;20362;-65
2022/01/11 05:16:52;;;;;;;36.67;20.85;;;;;;;4.19;82.16;102550.91;5116546;28;20062;-65
2022/01/11 05:19:19;;;;;;;35.33;19.85;;;;;;;4.36;81.30;102546.53;5115979;28;20058;-65
2022/01/11 05:21:47;;;;;;;34.92;20.08;;;;;;;4.20;81.06;102544.41;5115949;28;20043;-65
2022/01/11 05:24:15;;;;;;;32.60;19.98;;;;;;;3.89;81.84;102541.78;5117580;28;20048;-65
2022/01/11 05:26:45;;;;;;;36.30;21.52;;;;;;;3.71;83.34;102547.22;5116296;28;20054;-64
2022/01/11 05:29:12;;;;;;;37.00;20.08;;;;;;;3.96;82.95;102549.91;5117527;28;20506;-65
2022/01/11 05:31:40;;;;;;;31.98;20.00;;;;;;;3.94;81.94;102566.47;5081304;28;20513;-65
2022/01/11 05:34:07;;;;;;;33.65;19.75;;;;;;;3.99;81.36;102561.19;5114999;28;20048;-65
2022/01/11 05:36:35;;;;;;;35.88;19.90;;;;;;;4.05;81.79;102559.47;5115590;28;20540;-64
2022/01/11 05:39:03;;;;;;;37.33;19.77;;;;;;;4.05;81.24;102560.31;5116840;28;20486;-64
2022/01/11 05:41:31;;;;;;;36.50;20.95;;;;;;;4.14;80.98;102556.22;5114520;28;20044;-64
2022/01/11 05:43:59;;;;;;;37.45;21.20;;;;;;;4.04;80.80;102550.47;5098388;28;20051;-66
2022/01/11 05:46:27;;;;;;;36.42;21.63;;;;;;;4.07;80.68;102551.91;5115667;28;20051;-64
2022/01/11 05:48:55;;;;;;;39.35;22.85;;;;;;;4.06;80.91;102567.41;5115273;28;20047;-66
2022/01/11 05:51:25;;;;;;;37.65;22.15;;;;;;;4.01;80.91;102575.44;5127826;27;20050;-65
2022/01/11 05:53:55;;;;;;;39.53;22.08;;;;;;;3.94;81.31;102587.47;5115087;28;20089;-64
2022/01/11 05:56:23;;;;;;;39.80;22.10;;;;;;;4.03;81.57;102584.22;5115648;28;20058;-65
2022/01/11 05:58:52;;;;;;;37.25;21.58;;;;;;;3.88;81.62;102582.91;5115794;28;20616;-66
2022/01/11 06:01:20;;;;;;;42.65;23.58;;;;;;;3.89;81.92;102581.88;5114125;28;20051;-63
2022/01/11 06:03:48;;;;;;;44.83;21.95;;;;;;;4.03;81.66;102577.94;5131621;27;20383;-65
2022/01/11 06:06:15;;;;;;;40.83;22.17;;;;;;;3.94;81.44;102587.47;5137122;27;20046;-65
2022/01/11 06:08:44;;;;;;;46.75;24.20;;;;;;;4.05;80.94;102597.63;5135530;27;20398;-65
2022/01/11 06:11:12;;;;;;;42.15;23.50;;;;;;;4.01;80.80;102597.25;5135307;27;20047;-65
2022/01/11 06:13:42;;;;;;;42.65;23.80;;;;;;;4.21;80.63;102592.44;5135359;27;20047;-64
2022/01/11 06:16:09;;;;;;;38.72;23.65;;;;;;;4.39;80.03;102595.16;5129743;27;20058;-64
2022/01/11 06:18:37;;;;;;;43.60;24.45;;;;;;;4.04;80.09;102607.72;5112287;28;20052;-64
2022/01/11 06:21:13;;;;;;;40.03;24.05;;;;;;;3.80;81.37;102607.75;5094698;28;20044;-64
2022/01/11 06:23:41;;;;;;;45.03;24.63;;;;;;;3.97;81.16;102617.00;5094844;28;20403;-65
2022/01/11 06:26:09;;;;;;;43.70;22.80;;;;;;;3.87;80.58;102620.22;5094881;28;20044;-66
2022/01/11 06:28:36;;;;;;;39.13;22.65;;;;;;;3.66;80.92;102620.59;5094370;28;20048;-65
2022/01/11 06:31:04;;;;;;;42.05;21.85;;;;;;;3.74;80.85;102616.78;5093424;28;20048;-65
2022/01/11 06:33:31;;;;;;;39.42;22.60;;;;;;;3.67;80.35;102621.44;5104560;28;20406;-64
2022/01/11 06:35:59;;;;;;;36.63;19.60;;;;;;;3.63;80.05;102621.06;5114825;28;20047;-64
2022/01/11 06:38:26;;;;;;;40.70;20.63;;;;;;;3.62;80.29;102627.59;5096491;28;20047;-65
2022/01/11 06:40:54;;;;;;;35.38;20.98;;;;;;;3.56;79.90;102624.91;5093990;28;20055;-65
2022/01/11 06:43:23;;;;;;;38.85;21.33;;;;;;;3.45;80.22;102629.19;5103387;28;20059;-66
2022/01/11 06:45:51;;;;;;;38.83;22.08;;;;;;;3.41;80.66;102615.16;5096019;28;20054;-68
2022/01/11 06:48:20;;;;;;;37.77;21.67;;;;;;;3.46;80.32;102619.94;5093841;28;20051;-65
2022/01/11 06:50:48;;;;;;;40.33;21.85;;;;;;;3.51;80.34;102619.25;5094541;28;20059;-66
2022/01/11 06:53:17;;;;;;;43.53;24.85;;;;;;;3.20;80.36;102615.50;5080369;28;20074;-66
2022/01/11 06:55:50;;;;;;;40.20;23.05;;;;;;;3.19;81.23;102626.63;5077997;28;20118;-66
2022/01/11 06:58:19;;;;;;;44.08;24.30;;;;;;;3.54;80.46;102632.47;5084104;28;20044;-64
2022/01/11 07:00:47;;;;;;;41.40;22.63;;;;;;;3.13;81.22;102628.31;5091090;28;20058;-65
2022/01/11 07:03:16;;;;;;;47.70;24.50;;;;;;;3.11;81.34;102632.28;5132095;27;20054;-64
2022/01/11 07:05:56;;;;;;;49.63;25.13;;;;;;;2.87;82.65;102627.59;5094356;28;20044;-65
2022/01/11 07:08:24;;;;;;;43.97;24.95;;;;;;;3.08;82.44;102632.75;5093589;28;20435;-64
2022/01/11 07:10:52;;;;;;;41.40;24.88;;;;;;;2.99;82.18;102634.03;5107157;28;20044;-64
2022/01/11 07:13:20;;;;;;;44.83;24.33;;;;;;;2.88;82.78;102642.88;5102151;28;20075;-66
2022/01/11 07:15:49;;;;;;;44.50;24.90;;;;;;;2.99;83.40;102634.88;5098535;28;20044;-65
2022/01/11 07:18:16;;;;;;;42.95;24.90;;;;;;;3.25;82.45;102637.47;5113931;27;20047;-64
2022/01/11 07:20:44;;;;;;;39.28;24.48;;;;;;;3.35;81.99;102643.25;5104329;28;20070;-66
2022/01/11 07:23:19;;;;;;;45.50;25.13;;;;;;;3.42;80.90;102646.78;5093153;28;20051;-65
2022/01/11 07:25:48;;;;;;;47.65;25.70;;;;;;;3.40;80.75;102646.16;5102080;28;20055;-65
2022/01/11 07:28:15;;;;;;;44.47;25.23;;;;;;;3.51;80.13;102652.78;5109480;28;20052;-65
2022/01/11 07:30:45;;;;;;;55.55;24.00;;;;;;;3.62;80.88;102656.72;5110260;28;20047;-67
2022/01/11 07:33:13;;;;;;;41.92;23.67;;;;;;;3.90;79.56;102657.13;5093661;28;20139;-68
2022/01/11 07:35:42;;;;;;;44.22;23.88;;;;;;;3.54;79.30;102657.78;5110675;28;20048;-67
2022/01/11 07:38:12;;;;;;;43.08;23.85;;;;;;;3.56;79.52;102671.22;5093734;28;20059;-68
2022/01/11 07:40:40;;;;;;;45.80;23.60;;;;;;;3.59;79.10;102676.22;5100109;28;20063;-68
2022/01/11 07:43:34;;;;;;;41.35;23.27;;;;;;;3.61;79.45;102687.75;5093575;28;20079;-67
2022/01/11 07:46:12;;;;;;;42.22;23.15;;;;;;;3.41;80.41;102687.84;5104999;28;20494;-68
2022/01/11 07:48:45;;;;;;;41.25;25.05;;;;;;;3.47;79.86;102700.59;5097282;28;20044;-66
2022/01/11 07:51:12;;;;;;;44.92;24.17;;;;;;;3.43;79.61;102693.94;5112201;28;20051;-67
2022/01/11 07:53:41;;;;;;;42.35;23.75;;;;;;;3.42;79.63;102690.34;5108254;28;20048;-67
2022/01/11 07:56:14;;;;;;;46.25;23.88;;;;;;;3.51;79.97;102687.38;5113855;28;20048;-68
2022/01/11 07:58:41;;;;;;;45.13;24.25;;;;;;;3.32;80.26;102681.00;5106532;28;20047;-67
2022/01/11 08:01:12;;;;;;;52.00;28.60;;;;;;;3.50;80.38;102697.44;5100614;28;20043;-67
2022/01/11 08:03:42;;;;;;;47.60;27.17;;;;;;;3.71;80.11;102690.81;5130729;27;20418;-67
2022/01/11 08:06:17;;;;;;;43.72;25.98;;;;;;;3.62;79.33;102695.69;5108040;27;20044;-68
2022/01/11 08:08:48;;;;;;;42.05;23.85;;;;;;;3.56;79.27;102699.28;5096692;28;20063;-68
2022/01/11 08:11:16;;;;;;;44.22;24.92;;;;;;;3.49;78.90;102706.66;5111511;27;20052;-67
2022/01/11 08:13:44;;;;;;;53.42;26.83;;;;;;;3.25;79.93;102707.41;5112816;28;20063;-67
2022/01/11 08:16:11;;;;;;;41.65;24.75;;;;;;;3.13;80.16;102703.72;5113137;27;20051;-68
2022/01/11 08:18:39;;;;;;;46.28;25.83;;;;;;;3.50;80.03;102707.50;5108936;28;20055;-67
2022/01/11 08:21:07;;;;;;;43.38;25.08;;;;;;;3.44;79.13;102714.66;5097617;28;20074;-68
2022/01/11 08:23:34;;;;;;;42.38;24.10;;;;;;;3.54;78.91;102715.00;5100466;28;20043;-67
2022/01/11 08:26:03;;;;;;;48.58;25.90;;;;;;;3.24;78.94;102716.66;5109193;28;20391;-67
2022/01/11 08:28:30;;;;;;;43.22;25.33;;;;;;;3.14;80.43;102724.41;5099833;28;20523;-65
2022/01/11 08:31:01;;;;;;;47.03;24.55;;;;;;;3.14;80.29;102732.59;5071108;28;20040;-67
2022/01/11 08:33:34;;;;;;;45.88;25.02;;;;;;;3.04;80.65;102741.22;5097611;28;20059;-67
2022/01/11 08:36:01;;;;;;;47.92;26.58;;;;;;;3.05;80.95;102742.88;5096558;28;20052;-66
2022/01/11 08:38:31;;;;;;;49.33;26.33;;;;;;;3.04;81.09;102738.50;5063250;28;20054;-66
2022/01/11 08:40:59;;;;;;;65.15;35.85;;;;;;;3.13;81.13;102739.09;5111096;28;20052;-66
2022/01/11 08:43:32;;;;;;;51.53;28.55;;;;;;;3.33;80.53;102742.56;5117856;28;20047;-66
2022/01/11 08:46:02;;;;;;;50.53;27.33;;;;;;;3.24;80.50;102746.59;5116463;28;20055;-68
2022/01/11 08:48:36;;;;;;;48.13;26.38;;;;;;;3.42;80.26;102742.13;5116290;28;20491;-66
2022/01/11 08:51:11;;;;;;;46.45;26.85;;;;;;;3.36;79.95;102736.69;5112381;28;20048;-67
2022/01/11 08:53:39;;;;;;;46.67;26.05;;;;;;;3.41;80.10;102737.72;5105868;27;20039;-66
2022/01/11 08:56:15;;;;;;;56.92;27.98;;;;;;;3.33;79.77;102743.41;5096969;27;20051;-66
2022/01/11 08:58:44;;;;;;;46.10;26.27;;;;;;;3.45;79.57;102743.59;5126621;27;20051;-65
2022/01/11 09:01:14;;;;;;;54.55;29.23;;;;;;;3.36;79.95;102736.69;5099019;28;20055;-66
2022/01/11 09:03:44;;;;;;;62.17;34.45;;;;;;;3.37;80.35;102732.91;5117347;27;20052;-66
2022/01/11 09:06:11;;;;;;;59.38;30.55;;;;;;;3.37;80.33;102731.03;5115259;28;20052;-65
2022/01/11 09:08:41;;;;;;;50.05;27.88;;;;;;;3.36;80.08;102733.97;5116124;28;20047;-64
2022/01/11 09:11:09;;;;;;;49.90;26.65;;;;;;;3.40;80.37;102749.66;5092540;28;20062;-65
2022/01/11 09:13:39;;;;;;;47.25;27.00;;;;;;;3.51;79.74;102748.16;5113253;27;20071;-66
2022/01/11 09:16:08;;;;;;;49.10;27.30;;;;;;;3.27;79.58;102752.47;5090196;27;20054;-66
2022/01/11 09:18:38;;;;;;;48.35;26.45;;;;;;;2.99;80.32;102743.75;5108531;27;20426;-74
2022/01/11 09:21:06;;;;;;;59.92;29.40;;;;;;;3.11;81.29;102749.38;5115932;28;20063;-66
2022/01/11 09:23:35;;;;;;;53.63;28.63;;;;;;;3.37;80.26;102750.09;5097830;28;20047;-66
2022/01/11 09:26:03;;;;;;;49.37;27.93;;;;;;;3.28;80.20;102745.09;5112037;27;20051;-66
2022/01/11 09:28:38;;;;;;;56.85;29.67;;;;;;;3.14;80.98;102751.66;5102766;28;20305;-67
2022/01/11 09:31:05;;;;;;;55.83;28.67;;;;;;;3.31;81.01;102752.88;5108111;27;20052;-67
2022/01/11 09:33:33;;;;;;;47.22;28.02;;;;;;;3.46;80.15;102761.59;5102929;28;20048;-66
2022/01/11 09:36:02;;;;;;;;;;;;;;;3.43;80.28;102767.47;5115702;28;20052;-67
2022/01/11 09:38:30;;;;;;;47.03;26.40;;;;;;;3.27;80.59;102763.34;5095886;28;19931;-67
2022/01/11 09:40:59;;;;;;;52.35;28.20;;;;;;;3.25;80.51;102761.88;5089786;28;20043;-67
2022/01/11 09:43:31;;;;;;;51.15;27.50;;;;;;;3.13;80.96;102774.50;5117141;28;20047;-67
2022/01/11 09:46:05;;;;;;;57.72;28.25;;;;;;;3.23;79.95;102775.72;5087243;28;20059;-66
2022/01/11 09:48:34;;;;;;;50.50;27.75;;;;;;;3.22;79.83;102779.50;5095297;28;20059;-67
2022/01/11 09:51:02;;;;;;;50.90;29.42;;;;;;;3.00;80.69;102778.06;5095194;28;20056;-66
2022/01/11 09:53:31;;;;;;;54.75;28.70;;;;;;;3.11;80.95;102776.59;5080621;28;20043;-67
2022/01/11 09:56:04;;;;;;;56.17;30.17;;;;;;;2.91;80.94;102778.53;5099086;28;20052;-68
2022/01/11 09:58:35;;;;;;;58.88;28.77;;;;;;;2.75;81.96;102781.69;5097530;28;20043;-67
2022/01/11 10:01:14;;;;;;;61.25;33.22;;;;;;;2.83;82.39;102781.47;5115130;28;20082;-65
2022/01/11 10:04:18;;;;;;;54.28;30.17;;;;;;;3.10;81.84;102785.81;5124259;27;20505;-66
2022/01/11 10:07:08;;;;;;;58.38;30.95;;;;;;;3.06;81.07;102793.56;5135862;27;20051;-67
2022/01/11 10:09:48;;;;;;;53.13;28.73;;;;;;;3.02;81.06;102796.91;5125227;27;20054;-68
2022/01/11 10:12:18;;;;;;;58.28;29.05;;;;;;;3.07;81.65;102797.97;5112348;28;20047;-65
2022/01/11 10:14:49;;;;;;;57.17;28.23;;;;;;;2.95;81.63;102793.38;5104401;28;20052;-68
2022/01/11 10:17:21;;;;;;;52.33;28.10;;;;;;;2.98;81.60;102793.78;5106666;27;20403;-62
2022/01/11 10:20:05;;;;;;;60.40;29.73;;;;;;;2.95;81.86;102790.66;5120557;27;20051;-66
2022/01/11 10:22:52;;;;;;;57.00;29.98;;;;;;;2.93;81.85;102798.22;5098807;28;20048;-66
2022/01/11 10:25:19;;;;;;;55.38;29.52;;;;;;;2.83;82.03;102801.38;5107068;28;20063;-66
2022/01/11 10:27:55;;;;;;;54.42;30.27;;;;;;;2.96;82.07;102806.81;5119053;27;20051;-67
2022/01/11 10:30:25;;;;;;;50.38;29.67;;;;;;;3.03;81.77;102813.03;5131599;27;20054;-66
2022/01/11 10:33:04;;;;;;;58.63;29.35;;;;;;;3.03;81.65;102806.78;5096738;28;20054;-67
2022/01/11 10:35:42;;;;;;;54.38;29.73;;;;;;;3.18;80.80;102805.47;5079146;28;20048;-66
2022/01/11 10:38:29;;;;;;;58.40;29.75;;;;;;;3.14;81.19;102811.53;5097341;28;20044;-67
2022/01/11 10:41:07;;;;;;;55.53;29.00;;;;;;;3.11;81.18;102814.69;5099557;28;20055;-67
2022/01/11 10:43:44;;;;;;;57.03;31.70;;;;;;;3.37;80.44;102817.34;5113668;28;20039;-67
2022/01/11 10:46:18;;;;;;;61.33;31.55;;;;;;;3.11;81.03;102809.25;5115010;28;20059;-68
2022/01/11 10:49:06;;;;;;;59.63;31.00;;;;;;;3.07;81.50;102811.56;5103192;28;20055;-67
2022/01/11 10:51:34;;;;;;;63.38;31.52;;;;;;;2.99;82.24;102808.25;5077419;28;20075;-66
2022/01/11 10:54:01;;;;;;;63.83;31.90;;;;;;;3.12;82.06;102816.41;5076406;28;20052;-67
2022/01/11 10:56:39;;;;;;;59.30;30.92;;;;;;;3.28;81.23;102822.19;5105832;28;20051;-68
2022/01/11 10:59:10;;;;;;;63.90;32.65;;;;;;;3.21;82.12;102818.66;5094993;28;20172;-67
2022/01/11 11:01:48;;;;;;;63.13;32.28;;;;;;;3.16;81.99;102817.63;5084119;28;20051;-66
2022/01/11 11:04:29;;;;;;;;;;;;;;;3.27;81.93;102811.53;5134963;27;20039;-66
2022/01/11 11:07:10;;;;;;;60.45;30.63;;;;;;;3.31;81.57;102807.34;5095634;28;19927;-67
2022/01/11 11:09:45;;;;;;;65.53;31.00;;;;;;;3.34;81.87;102809.63;5093709;28;20047;-66
2022/01/11 11:12:17;;;;;;;61.13;32.35;;;;;;;3.50;81.54;102806.41;5096973;28;20044;-67
2022/01/11 11:15:07;;;;;;;63.53;30.35;;;;;;;3.92;80.26;102805.78;5093840;28;20070;-66
2022/01/11 11:17:39;;;;;;;60.53;30.02;;;;;;;3.75;79.70;102811.97;5094265;28;20063;-66
2022/01/11 11:20:22;;;;;;;62.08;32.42;;;;;;;3.84;79.72;102816.09;5084772;28;20048;-67
2022/01/11 11:22:51;;;;;;;61.72;31.77;;;;;;;3.96;79.36;102812.47;5095856;28;20052;-65
2022/01/11 11:25:19;;;;;;;57.28;30.92;;;;;;;3.89;79.09;102822.56;5094684;28;20052;-66
2022/01/11 11:27:46;;;;;;;55.47;30.55;;;;;;;3.89;79.00;102810.84;5104759;28;20051;-65
2022/01/11 11:30:14;;;;;;;59.75;31.15;;;;;;;3.88;79.29;102812.72;5107618;28;20040;-66
2022/01/11 11:32:42;;;;;;;57.97;31.08;;;;;;;3.88;78.51;102804.56;5077338;28;20059;-66
2022/01/11 11:35:09;;;;;;;60.70;30.38;;;;;;;3.88;78.83;102800.97;5076868;28;20495;-66
2022/01/11 11:37:38;;;;;;;58.90;30.50;;;;;;;4.00;78.65;102810.97;5094733;28;20048;-66